DLH3509 EDDF-LIMJ
Flight info
| Callsign | DLH3509 |
|---|---|
| Flight time | 1h 4m |
| Altitude | 33000 |
| Route | ANEKI2L/18 ANEKI Y163 NATOR DCT TRA DCT RIPUS DCT GERSA DCT SOSON DCT ODINA M727 SRN M858 VOG |
| Aircraft | A320/M-SDE3FGHIRWY/LB1 |
Departure
| Time | 2026-04-15 10:43 |
|---|---|
| Airport | Frankfurt Main Airport (EDDF) |
Arrival
| Time | 2026-04-15 11:47 |
|---|---|
| Airport | Genoa Cristoforo Colombo Airport (LIMJ) |
| Time | Latitude | Longitude | Altitude | Speed | Heading |
|---|---|---|---|---|---|
| 2026-04-15 10:05 | 50.04416 | 8.56277 | 366 ft | 0 kts | 164° |
| 2026-04-15 10:33 | 50.04436 | 8.56268 | 369 ft | 4 kts | 165° |
| 2026-04-15 10:33 | 50.04461 | 8.56258 | 366 ft | 4 kts | 175° |
| 2026-04-15 10:33 | 50.04483 | 8.56267 | 366 ft | 4 kts | 228° |
| 2026-04-15 10:33 | 50.04494 | 8.56295 | 367 ft | 4 kts | 249° |
| 2026-04-15 10:34 | 50.04504 | 8.56334 | 369 ft | 4 kts | 249° |
| 2026-04-15 10:34 | 50.04513 | 8.56373 | 366 ft | 3 kts | 249° |
| 2026-04-15 10:34 | 50.04514 | 8.56377 | 371 ft | 0 kts | 249° |
| 2026-04-15 10:36 | 50.04514 | 8.56376 | 371 ft | 1 kts | 249° |
| 2026-04-15 10:36 | 50.04503 | 8.56331 | 369 ft | 7 kts | 249° |
| 2026-04-15 10:37 | 50.04478 | 8.56227 | 366 ft | 13 kts | 249° |
| 2026-04-15 10:37 | 50.04444 | 8.56087 | 366 ft | 15 kts | 248° |
| 2026-04-15 10:37 | 50.04402 | 8.56033 | 366 ft | 9 kts | 188° |
| 2026-04-15 10:37 | 50.04326 | 8.56067 | 366 ft | 13 kts | 158° |
| 2026-04-15 10:38 | 50.04283 | 8.56197 | 373 ft | 14 kts | 125° |
| 2026-04-15 10:38 | 50.04183 | 8.56274 | 370 ft | 18 kts | 159° |
| 2026-04-15 10:38 | 50.04112 | 8.56219 | 365 ft | 15 kts | 248° |
| 2026-04-15 10:38 | 50.04069 | 8.56038 | 365 ft | 21 kts | 250° |
| 2026-04-15 10:39 | 50.04016 | 8.55816 | 367 ft | 23 kts | 249° |
| 2026-04-15 10:39 | 50.03957 | 8.55570 | 367 ft | 25 kts | 249° |
| 2026-04-15 10:39 | 50.03893 | 8.55300 | 371 ft | 28 kts | 250° |
| 2026-04-15 10:39 | 50.03822 | 8.55006 | 371 ft | 30 kts | 249° |
| 2026-04-15 10:40 | 50.03749 | 8.54701 | 371 ft | 29 kts | 249° |
| 2026-04-15 10:40 | 50.03677 | 8.54397 | 372 ft | 31 kts | 250° |
| 2026-04-15 10:40 | 50.03604 | 8.54095 | 368 ft | 30 kts | 249° |
| 2026-04-15 10:40 | 50.03528 | 8.53777 | 367 ft | 32 kts | 250° |
| 2026-04-15 10:41 | 50.03449 | 8.53443 | 364 ft | 34 kts | 250° |
| 2026-04-15 10:41 | 50.03370 | 8.53098 | 368 ft | 33 kts | 249° |
| 2026-04-15 10:41 | 50.03288 | 8.52765 | 369 ft | 30 kts | 249° |
| 2026-04-15 10:41 | 50.03179 | 8.52598 | 368 ft | 22 kts | 190° |
| 2026-04-15 10:42 | 50.03141 | 8.52598 | 365 ft | 14 kts | 180° |
| 2026-04-15 10:42 | 50.02753 | 8.52601 | 367 ft | 92 kts | 179° |
| 2026-04-15 10:42 | 50.01911 | 8.52612 | 367 ft | 147 kts | 179° |
| 2026-04-15 10:42 | 50.00777 | 8.52638 | 699 ft | 167 kts | 179° |
| 2026-04-15 10:43 | 49.99612 | 8.52641 | 1385 ft | 170 kts | 177° |
| 2026-04-15 10:43 | 49.98404 | 8.52707 | 2003 ft | 181 kts | 175° |
| 2026-04-15 10:43 | 49.97052 | 8.52811 | 2368 ft | 206 kts | 176° |
| 2026-04-15 10:43 | 49.95550 | 8.52929 | 2904 ft | 223 kts | 175° |
| 2026-04-15 10:44 | 49.93973 | 8.53051 | 3664 ft | 231 kts | 175° |
| 2026-04-15 10:44 | 49.92362 | 8.53170 | 4119 ft | 232 kts | 175° |
| 2026-04-15 10:44 | 49.90754 | 8.53283 | 5086 ft | 231 kts | 175° |
| 2026-04-15 10:44 | 49.89148 | 8.53392 | 6010 ft | 232 kts | 176° |
| 2026-04-15 10:45 | 49.87525 | 8.53504 | 6878 ft | 234 kts | 177° |
| 2026-04-15 10:45 | 49.85905 | 8.53615 | 7654 ft | 238 kts | 177° |
| 2026-04-15 10:45 | 49.84235 | 8.53728 | 8436 ft | 242 kts | 178° |
| 2026-04-15 10:45 | 49.82531 | 8.53846 | 9240 ft | 246 kts | 178° |
| 2026-04-15 10:46 | 49.80807 | 8.53966 | 10070 ft | 250 kts | 179° |
| 2026-04-15 10:46 | 49.79052 | 8.54085 | 10800 ft | 255 kts | 178° |
| 2026-04-15 10:46 | 49.77251 | 8.54045 | 11403 ft | 266 kts | 186° |
| 2026-04-15 10:46 | 49.75328 | 8.53801 | 11699 ft | 289 kts | 186° |
| 2026-04-15 10:47 | 49.73237 | 8.53515 | 11960 ft | 313 kts | 186° |
| 2026-04-15 10:47 | 49.71022 | 8.53206 | 12283 ft | 332 kts | 186° |
| 2026-04-15 10:47 | 49.68691 | 8.52884 | 12933 ft | 339 kts | 186° |
| 2026-04-15 10:47 | 49.66322 | 8.52562 | 13664 ft | 343 kts | 186° |
| 2026-04-15 10:48 | 49.63927 | 8.52244 | 14337 ft | 348 kts | 186° |
| 2026-04-15 10:48 | 49.61495 | 8.51926 | 14955 ft | 352 kts | 186° |
| 2026-04-15 10:48 | 49.59040 | 8.51605 | 15587 ft | 357 kts | 185° |
| 2026-04-15 10:48 | 49.56549 | 8.51284 | 16217 ft | 361 kts | 185° |
| 2026-04-15 10:49 | 49.54026 | 8.50961 | 16838 ft | 365 kts | 185° |
| 2026-04-15 10:49 | 49.51501 | 8.50636 | 17458 ft | 369 kts | 185° |
| 2026-04-15 10:49 | 49.48929 | 8.50302 | 18081 ft | 373 kts | 185° |
| 2026-04-15 10:49 | 49.46324 | 8.49960 | 18670 ft | 378 kts | 185° |
| 2026-04-15 10:50 | 49.43685 | 8.49612 | 19203 ft | 381 kts | 185° |
| 2026-04-15 10:50 | 49.41025 | 8.49259 | 19724 ft | 385 kts | 185° |
| 2026-04-15 10:50 | 49.38344 | 8.48903 | 20260 ft | 388 kts | 185° |
| 2026-04-15 10:50 | 49.35645 | 8.48547 | 20791 ft | 392 kts | 185° |
| 2026-04-15 10:51 | 49.32913 | 8.48191 | 21325 ft | 394 kts | 185° |
| 2026-04-15 10:51 | 49.30159 | 8.47831 | 21847 ft | 397 kts | 185° |
| 2026-04-15 10:51 | 49.27394 | 8.47469 | 22354 ft | 400 kts | 185° |
| 2026-04-15 10:51 | 49.24602 | 8.47107 | 22856 ft | 403 kts | 185° |
| 2026-04-15 10:52 | 49.21861 | 8.46754 | 23343 ft | 407 kts | 185° |
| 2026-04-15 10:52 | 49.19024 | 8.46384 | 23783 ft | 411 kts | 185° |
| 2026-04-15 10:52 | 49.16152 | 8.46008 | 24162 ft | 414 kts | 185° |
| 2026-04-15 10:52 | 49.13291 | 8.45635 | 24540 ft | 418 kts | 185° |
| 2026-04-15 10:53 | 49.10378 | 8.45259 | 24908 ft | 421 kts | 185° |
| 2026-04-15 10:53 | 49.07434 | 8.44878 | 25270 ft | 425 kts | 186° |
| 2026-04-15 10:53 | 49.04510 | 8.44108 | 25599 ft | 426 kts | 194° |
| 2026-04-15 10:53 | 49.01600 | 8.43080 | 25937 ft | 430 kts | 194° |
| 2026-04-15 10:54 | 48.98675 | 8.42058 | 26274 ft | 434 kts | 194° |
| 2026-04-15 10:54 | 48.95710 | 8.41030 | 26610 ft | 438 kts | 194° |
| 2026-04-15 10:54 | 48.92726 | 8.40000 | 26956 ft | 441 kts | 194° |
| 2026-04-15 10:54 | 48.89708 | 8.38955 | 27309 ft | 445 kts | 194° |
| 2026-04-15 10:55 | 48.86685 | 8.37906 | 27652 ft | 448 kts | 194° |
| 2026-04-15 10:55 | 48.83619 | 8.36843 | 27994 ft | 451 kts | 194° |
| 2026-04-15 10:55 | 48.80592 | 8.35796 | 28315 ft | 454 kts | 194° |
| 2026-04-15 10:55 | 48.77457 | 8.34708 | 28656 ft | 458 kts | 194° |
| 2026-04-15 10:56 | 48.74331 | 8.33591 | 28952 ft | 462 kts | 195° |
| 2026-04-15 10:56 | 48.71199 | 8.32444 | 29272 ft | 465 kts | 195° |
| 2026-04-15 10:56 | 48.68076 | 8.31293 | 29585 ft | 468 kts | 195° |
| 2026-04-15 10:56 | 48.64853 | 8.30103 | 29910 ft | 471 kts | 195° |
| 2026-04-15 10:57 | 48.61702 | 8.28941 | 30230 ft | 474 kts | 195° |
| 2026-04-15 10:57 | 48.55296 | 8.26602 | 30763 ft | 480 kts | 195° |
| 2026-04-15 10:57 | 48.52018 | 8.25503 | 31002 ft | 483 kts | 190° |
| 2026-04-15 10:58 | 48.48652 | 8.25030 | 31255 ft | 487 kts | 181° |
| 2026-04-15 10:58 | 48.45258 | 8.25301 | 31491 ft | 489 kts | 172° |
| 2026-04-15 10:58 | 48.41888 | 8.26114 | 31734 ft | 492 kts | 171° |
| 2026-04-15 10:58 | 48.38503 | 8.26945 | 32054 ft | 491 kts | 171° |
| 2026-04-15 10:59 | 48.35112 | 8.27767 | 32393 ft | 492 kts | 171° |
| 2026-04-15 10:59 | 48.31729 | 8.28582 | 32715 ft | 492 kts | 171° |
| 2026-04-15 10:59 | 48.29494 | 8.29120 | 32927 ft | 492 kts | 171° |
| 2026-04-15 10:59 | 48.26101 | 8.29937 | 33186 ft | 493 kts | 171° |
| 2026-04-15 11:00 | 48.19427 | 8.31540 | 33233 ft | 476 kts | 171° |
| 2026-04-15 11:00 | 48.12853 | 8.33122 | 33228 ft | 473 kts | 171° |
| 2026-04-15 11:01 | 48.06364 | 8.34702 | 33237 ft | 472 kts | 170° |
| 2026-04-15 11:01 | 47.99906 | 8.36280 | 33232 ft | 472 kts | 170° |
| 2026-04-15 11:02 | 47.93410 | 8.37844 | 33233 ft | 472 kts | 171° |
| 2026-04-15 11:02 | 47.86911 | 8.39394 | 33220 ft | 471 kts | 170° |
| 2026-04-15 11:03 | 47.80426 | 8.40948 | 33218 ft | 471 kts | 170° |
| 2026-04-15 11:03 | 47.73938 | 8.42509 | 33225 ft | 470 kts | 170° |
| 2026-04-15 11:04 | 47.67435 | 8.44028 | 33198 ft | 475 kts | 171° |
| 2026-04-15 11:04 | 47.60879 | 8.45117 | 33180 ft | 476 kts | 174° |
| 2026-04-15 11:05 | 47.54269 | 8.45930 | 33168 ft | 476 kts | 174° |
| 2026-04-15 11:05 | 47.47670 | 8.46791 | 33158 ft | 475 kts | 173° |
| 2026-04-15 11:06 | 47.41064 | 8.47770 | 33155 ft | 475 kts | 173° |
| 2026-04-15 11:06 | 47.34466 | 8.48771 | 33160 ft | 475 kts | 173° |
| 2026-04-15 11:07 | 47.27914 | 8.49749 | 33171 ft | 476 kts | 173° |
| 2026-04-15 11:07 | 47.21311 | 8.50697 | 33182 ft | 476 kts | 173° |
| 2026-04-15 11:08 | 47.14708 | 8.51645 | 33198 ft | 476 kts | 173° |
| 2026-04-15 11:08 | 47.08129 | 8.52603 | 33221 ft | 476 kts | 173° |
| 2026-04-15 11:09 | 47.01512 | 8.53565 | 33214 ft | 477 kts | 173° |
| 2026-04-15 11:09 | 46.94936 | 8.54508 | 33205 ft | 477 kts | 173° |
| 2026-04-15 11:10 | 46.88296 | 8.55460 | 33189 ft | 477 kts | 173° |
| 2026-04-15 11:10 | 46.81716 | 8.56418 | 33181 ft | 477 kts | 173° |
| 2026-04-15 11:11 | 46.75125 | 8.57360 | 33193 ft | 477 kts | 172° |
| 2026-04-15 11:11 | 46.68471 | 8.58303 | 33167 ft | 478 kts | 173° |
| 2026-04-15 11:12 | 46.61877 | 8.59240 | 33143 ft | 478 kts | 172° |
| 2026-04-15 11:12 | 46.55263 | 8.60186 | 33158 ft | 477 kts | 173° |
| 2026-04-15 11:13 | 46.48661 | 8.61121 | 33172 ft | 476 kts | 173° |
| 2026-04-15 11:13 | 46.42088 | 8.62052 | 33170 ft | 476 kts | 173° |
| 2026-04-15 11:14 | 46.35493 | 8.62987 | 33084 ft | 475 kts | 173° |
| 2026-04-15 11:14 | 46.28924 | 8.63911 | 33155 ft | 473 kts | 173° |
| 2026-04-15 11:15 | 46.22344 | 8.64830 | 33154 ft | 474 kts | 172° |
| 2026-04-15 11:15 | 46.15769 | 8.65753 | 33152 ft | 475 kts | 172° |
| 2026-04-15 11:16 | 46.09388 | 8.67714 | 33150 ft | 468 kts | 155° |
| 2026-04-15 11:16 | 46.03630 | 8.71844 | 33146 ft | 463 kts | 147° |
| 2026-04-15 11:17 | 45.97961 | 8.76275 | 33168 ft | 464 kts | 146° |
| 2026-04-15 11:17 | 45.92287 | 8.80695 | 33158 ft | 464 kts | 146° |
| 2026-04-15 11:18 | 45.86620 | 8.85110 | 33157 ft | 464 kts | 146° |
| 2026-04-15 11:18 | 45.80931 | 8.89534 | 33156 ft | 464 kts | 146° |
| 2026-04-15 11:19 | 45.75238 | 8.93951 | 33157 ft | 464 kts | 146° |
| 2026-04-15 11:19 | 45.69562 | 8.98333 | 33054 ft | 465 kts | 147° |
| 2026-04-15 11:20 | 45.63383 | 9.01386 | 33026 ft | 480 kts | 167° |
| 2026-04-15 11:20 | 45.60007 | 9.01850 | 32223 ft | 494 kts | 178° |
| 2026-04-15 11:20 | 45.56566 | 9.01578 | 31705 ft | 491 kts | 182° |
| 2026-04-15 11:21 | 45.53202 | 9.01269 | 31160 ft | 489 kts | 181° |
| 2026-04-15 11:21 | 45.49812 | 9.00988 | 30616 ft | 486 kts | 181° |
| 2026-04-15 11:21 | 45.46446 | 9.00732 | 30153 ft | 481 kts | 181° |
| 2026-04-15 11:21 | 45.43094 | 9.00492 | 29646 ft | 477 kts | 181° |
| 2026-04-15 11:22 | 45.39795 | 9.00259 | 29082 ft | 473 kts | 181° |
| 2026-04-15 11:22 | 45.36586 | 9.00028 | 28390 ft | 461 kts | 181° |
| 2026-04-15 11:22 | 45.33397 | 8.99790 | 27709 ft | 450 kts | 181° |
| 2026-04-15 11:22 | 45.30332 | 8.99553 | 27448 ft | 431 kts | 181° |
| 2026-04-15 11:23 | 45.27373 | 8.99323 | 27114 ft | 416 kts | 181° |
| 2026-04-15 11:23 | 45.24564 | 8.99109 | 26656 ft | 403 kts | 181° |
| 2026-04-15 11:23 | 45.21791 | 8.98904 | 26205 ft | 391 kts | 181° |
| 2026-04-15 11:23 | 45.19094 | 8.98706 | 25744 ft | 381 kts | 181° |
| 2026-04-15 11:24 | 45.16482 | 8.98513 | 25306 ft | 371 kts | 182° |
| 2026-04-15 11:24 | 45.13950 | 8.98323 | 24857 ft | 363 kts | 182° |
| 2026-04-15 11:24 | 45.11438 | 8.98136 | 24408 ft | 358 kts | 182° |
| 2026-04-15 11:24 | 45.08979 | 8.97954 | 24035 ft | 348 kts | 182° |
| 2026-04-15 11:25 | 45.06606 | 8.97779 | 23544 ft | 343 kts | 182° |
| 2026-04-15 11:25 | 45.04235 | 8.97604 | 23069 ft | 338 kts | 182° |
| 2026-04-15 11:25 | 45.01897 | 8.97437 | 22662 ft | 331 kts | 180° |
| 2026-04-15 11:25 | 44.99664 | 8.97873 | 22332 ft | 321 kts | 156° |
| 2026-04-15 11:26 | 44.97812 | 8.99447 | 21781 ft | 311 kts | 131° |
| 2026-04-15 11:26 | 44.96616 | 9.01900 | 21238 ft | 300 kts | 106° |
| 2026-04-15 11:26 | 44.96292 | 9.04725 | 20690 ft | 289 kts | 81° |
| 2026-04-15 11:26 | 44.96878 | 9.07378 | 20175 ft | 280 kts | 55° |
| 2026-04-15 11:27 | 44.98267 | 9.09333 | 19811 ft | 286 kts | 28° |
| 2026-04-15 11:27 | 45.00135 | 9.10194 | 19339 ft | 284 kts | 3° |
| 2026-04-15 11:27 | 45.02070 | 9.09775 | 18984 ft | 290 kts | 339° |
| 2026-04-15 11:27 | 45.03722 | 9.08143 | 18624 ft | 294 kts | 311° |
| 2026-04-15 11:28 | 45.04679 | 9.05614 | 18464 ft | 295 kts | 284° |
| 2026-04-15 11:28 | 45.04740 | 9.02701 | 18452 ft | 300 kts | 260° |
| 2026-04-15 11:28 | 45.03965 | 8.99985 | 18280 ft | 304 kts | 232° |
| 2026-04-15 11:28 | 45.02325 | 8.98145 | 18001 ft | 304 kts | 203° |
| 2026-04-15 11:29 | 45.00281 | 8.97314 | 17741 ft | 305 kts | 187° |
| 2026-04-15 11:29 | 44.98196 | 8.97074 | 17621 ft | 305 kts | 179° |
| 2026-04-15 11:29 | 44.96077 | 8.97189 | 17365 ft | 303 kts | 173° |
| 2026-04-15 11:29 | 44.93997 | 8.97597 | 17096 ft | 300 kts | 170° |
| 2026-04-15 11:30 | 44.91933 | 8.98022 | 16837 ft | 297 kts | 170° |
| 2026-04-15 11:30 | 44.89890 | 8.98434 | 16578 ft | 295 kts | 170° |
| 2026-04-15 11:30 | 44.87888 | 8.98838 | 16327 ft | 293 kts | 169° |
| 2026-04-15 11:30 | 44.85860 | 8.99249 | 16073 ft | 292 kts | 170° |
| 2026-04-15 11:31 | 44.83877 | 8.99654 | 15824 ft | 290 kts | 170° |
| 2026-04-15 11:31 | 44.81890 | 9.00063 | 15569 ft | 288 kts | 169° |
| 2026-04-15 11:31 | 44.79911 | 9.00474 | 15321 ft | 286 kts | 169° |
| 2026-04-15 11:31 | 44.77946 | 9.00886 | 15071 ft | 284 kts | 169° |
| 2026-04-15 11:32 | 44.75984 | 9.01296 | 14823 ft | 283 kts | 169° |
| 2026-04-15 11:32 | 44.74057 | 9.01696 | 14577 ft | 283 kts | 170° |
| 2026-04-15 11:32 | 44.72107 | 9.02099 | 14328 ft | 281 kts | 170° |
| 2026-04-15 11:32 | 44.70195 | 9.02493 | 14073 ft | 280 kts | 169° |
| 2026-04-15 11:33 | 44.68266 | 9.02891 | 13819 ft | 280 kts | 170° |
| 2026-04-15 11:33 | 44.66342 | 9.03292 | 13534 ft | 279 kts | 169° |
| 2026-04-15 11:33 | 44.64429 | 9.03691 | 13259 ft | 277 kts | 170° |
| 2026-04-15 11:33 | 44.62519 | 9.04089 | 13189 ft | 275 kts | 170° |
| 2026-04-15 11:34 | 44.60631 | 9.04484 | 12915 ft | 274 kts | 170° |
| 2026-04-15 11:34 | 44.58703 | 9.04887 | 12652 ft | 295 kts | 169° |
| 2026-04-15 11:34 | 44.56646 | 9.05318 | 12386 ft | 307 kts | 169° |
| 2026-04-15 11:34 | 44.54527 | 9.05756 | 12107 ft | 307 kts | 170° |
| 2026-04-15 11:35 | 44.52411 | 9.06193 | 11855 ft | 307 kts | 169° |
| 2026-04-15 11:35 | 44.50292 | 9.06630 | 11593 ft | 308 kts | 168° |
| 2026-04-15 11:35 | 44.48165 | 9.07058 | 11331 ft | 308 kts | 170° |
| 2026-04-15 11:35 | 44.46027 | 9.06861 | 11063 ft | 310 kts | 194° |
| 2026-04-15 11:36 | 44.44138 | 9.05491 | 10807 ft | 311 kts | 219° |
| 2026-04-15 11:36 | 44.42789 | 9.03150 | 10539 ft | 309 kts | 245° |
| 2026-04-15 11:36 | 44.42228 | 9.00269 | 10280 ft | 307 kts | 268° |
| 2026-04-15 11:36 | 44.42143 | 8.97276 | 10028 ft | 305 kts | 270° |
| 2026-04-15 11:37 | 44.42067 | 8.94324 | 9820 ft | 305 kts | 270° |
| 2026-04-15 11:37 | 44.41988 | 8.91359 | 9676 ft | 302 kts | 269° |
| 2026-04-15 11:37 | 44.41908 | 8.88459 | 9548 ft | 293 kts | 269° |
| 2026-04-15 11:37 | 44.41827 | 8.86587 | 9459 ft | 288 kts | 265° |
| 2026-04-15 11:38 | 44.41288 | 8.83941 | 9326 ft | 281 kts | 245° |
| 2026-04-15 11:38 | 44.40243 | 8.81692 | 9185 ft | 272 kts | 227° |
| 2026-04-15 11:38 | 44.38325 | 8.79577 | 8891 ft | 263 kts | 208° |
| 2026-04-15 11:38 | 44.37253 | 8.78710 | 8670 ft | 262 kts | 208° |
| 2026-04-15 11:39 | 44.35694 | 8.77446 | 8328 ft | 263 kts | 209° |
| 2026-04-15 11:39 | 44.34106 | 8.76157 | 7987 ft | 264 kts | 208° |
| 2026-04-15 11:39 | 44.32518 | 8.74866 | 7645 ft | 264 kts | 209° |
| 2026-04-15 11:39 | 44.30932 | 8.73575 | 7318 ft | 264 kts | 209° |
| 2026-04-15 11:40 | 44.29343 | 8.72269 | 7091 ft | 266 kts | 212° |
| 2026-04-15 11:40 | 44.28059 | 8.70458 | 6696 ft | 267 kts | 242° |
| 2026-04-15 11:40 | 44.27487 | 8.68035 | 6317 ft | 262 kts | 269° |
| 2026-04-15 11:40 | 44.27704 | 8.65565 | 5936 ft | 252 kts | 291° |
| 2026-04-15 11:41 | 44.28160 | 8.63238 | 5566 ft | 244 kts | 290° |
| 2026-04-15 11:41 | 44.28870 | 8.61199 | 5211 ft | 225 kts | 318° |
| 2026-04-15 11:41 | 44.30099 | 8.60074 | 4777 ft | 208 kts | 348° |
| 2026-04-15 11:41 | 44.31487 | 8.59963 | 4450 ft | 196 kts | 15° |
| 2026-04-15 11:42 | 44.32787 | 8.60439 | 4159 ft | 190 kts | 16° |
| 2026-04-15 11:42 | 44.34035 | 8.60915 | 3853 ft | 182 kts | 20° |
| 2026-04-15 11:42 | 44.35097 | 8.61777 | 3620 ft | 170 kts | 41° |
| 2026-04-15 11:42 | 44.35787 | 8.62981 | 3609 ft | 146 kts | 57° |
| 2026-04-15 11:43 | 44.36262 | 8.64145 | 3597 ft | 138 kts | 56° |
| 2026-04-15 11:43 | 44.36766 | 8.65291 | 3360 ft | 138 kts | 55° |
| 2026-04-15 11:43 | 44.37300 | 8.66421 | 2933 ft | 141 kts | 55° |
| 2026-04-15 11:43 | 44.37795 | 8.67577 | 2466 ft | 144 kts | 59° |
| 2026-04-15 11:44 | 44.38191 | 8.68803 | 2193 ft | 136 kts | 62° |
| 2026-04-15 11:44 | 44.38618 | 8.69979 | 1977 ft | 135 kts | 56° |
| 2026-04-15 11:44 | 44.39166 | 8.71038 | 1597 ft | 133 kts | 49° |
| 2026-04-15 11:44 | 44.39758 | 8.72043 | 1566 ft | 133 kts | 52° |
| 2026-04-15 11:45 | 44.40228 | 8.73144 | 1319 ft | 131 kts | 61° |
| 2026-04-15 11:45 | 44.40616 | 8.74301 | 1199 ft | 132 kts | 64° |
| 2026-04-15 11:45 | 44.40998 | 8.75490 | 1052 ft | 133 kts | 64° |
| 2026-04-15 11:45 | 44.41366 | 8.76664 | 980 ft | 131 kts | 63° |
| 2026-04-15 11:46 | 44.41689 | 8.77867 | 971 ft | 133 kts | 72° |
| 2026-04-15 11:46 | 44.41869 | 8.79173 | 725 ft | 137 kts | 78° |
| 2026-04-15 11:46 | 44.41854 | 8.80521 | 460 ft | 140 kts | 92° |
| 2026-04-15 11:46 | 44.41659 | 8.81842 | 323 ft | 139 kts | 98° |
| 2026-04-15 11:47 | 44.41399 | 8.83127 | 196 ft | 129 kts | 98° |
| 2026-04-15 11:47 | 44.41243 | 8.83982 | 188 ft | 49 kts | 107° |
| 2026-04-15 11:47 | 44.41213 | 8.84222 | 194 ft | 15 kts | 57° |
| 2026-04-15 11:47 | 44.41268 | 8.84321 | 188 ft | 14 kts | 52° |
| 2026-04-15 11:48 | 44.41287 | 8.84356 | 190 ft | 0 kts | 53° |
| 2026-04-15 11:48 | 44.41303 | 8.84384 | 190 ft | 10 kts | 53° |
| 2026-04-15 11:48 | 44.41362 | 8.84494 | 190 ft | 17 kts | 53° |
| 2026-04-15 11:49 | 44.41413 | 8.84623 | 190 ft | 15 kts | 92° |
| 2026-04-15 11:49 | 44.41385 | 8.84780 | 191 ft | 17 kts | 105° |
| 2026-04-15 11:49 | 44.41393 | 8.84838 | 191 ft | 0 kts | 40° |
| 2026-04-15 11:49 | 44.41408 | 8.84892 | 217 ft | 11 kts | 60° |
| 2026-04-15 11:50 | 44.41425 | 8.84934 | 18 ft | 4 kts | 61° |
| 2026-04-15 11:50 | 44.41437 | 8.84965 | 19 ft | 0 kts | 62° |